sensor_id;sensor_type;location;lat;lon;timestamp;P1;durP1;ratioP1;P2;durP2;ratioP2
9773;SDS011;4926;42.670;23.316;2023-04-25T00:01:48;4.15;;;3.75;;
9773;SDS011;4926;42.670;23.316;2023-04-25T00:04:17;4.50;;;4.10;;
9773;SDS011;4926;42.670;23.316;2023-04-25T00:06:44;6.28;;;4.65;;
9773;SDS011;4926;42.670;23.316;2023-04-25T00:09:13;6.88;;;4.63;;
9773;SDS011;4926;42.670;23.316;2023-04-25T00:11:42;4.70;;;4.07;;
9773;SDS011;4926;42.670;23.316;2023-04-25T00:14:10;5.05;;;4.57;;
9773;SDS011;4926;42.670;23.316;2023-04-25T00:16:37;5.50;;;4.10;;
9773;SDS011;4926;42.670;23.316;2023-04-25T00:19:04;5.13;;;4.47;;
9773;SDS011;4926;42.670;23.316;2023-04-25T00:21:35;4.70;;;4.30;;
9773;SDS011;4926;42.670;23.316;2023-04-25T00:24:05;5.25;;;4.75;;
9773;SDS011;4926;42.670;23.316;2023-04-25T00:26:33;5.22;;;4.55;;
9773;SDS011;4926;42.670;23.316;2023-04-25T00:29:00;5.55;;;4.93;;
9773;SDS011;4926;42.670;23.316;2023-04-25T00:31:27;5.35;;;4.85;;
9773;SDS011;4926;42.670;23.316;2023-04-25T00:33:54;5.72;;;5.22;;
9773;SDS011;4926;42.670;23.316;2023-04-25T00:36:22;6.25;;;5.70;;
9773;SDS011;4926;42.670;23.316;2023-04-25T00:38:50;7.15;;;6.13;;
9773;SDS011;4926;42.670;23.316;2023-04-25T00:41:19;6.45;;;5.75;;
9773;SDS011;4926;42.670;23.316;2023-04-25T00:43:46;7.18;;;6.47;;
9773;SDS011;4926;42.670;23.316;2023-04-25T00:46:14;6.75;;;6.05;;
9773;SDS011;4926;42.670;23.316;2023-04-25T00:48:43;8.25;;;6.60;;
9773;SDS011;4926;42.670;23.316;2023-04-25T00:51:10;7.63;;;6.93;;
9773;SDS011;4926;42.670;23.316;2023-04-25T00:53:42;7.53;;;6.70;;
9773;SDS011;4926;42.670;23.316;2023-04-25T00:56:10;6.85;;;6.15;;
9773;SDS011;4926;42.670;23.316;2023-04-25T00:58:38;7.00;;;6.32;;
9773;SDS011;4926;42.670;23.316;2023-04-25T01:01:07;7.40;;;6.13;;
9773;SDS011;4926;42.670;23.316;2023-04-25T01:03:37;8.13;;;7.22;;
9773;SDS011;4926;42.670;23.316;2023-04-25T01:06:08;9.98;;;7.38;;
9773;SDS011;4926;42.670;23.316;2023-04-25T01:08:38;7.97;;;7.18;;
9773;SDS011;4926;42.670;23.316;2023-04-25T01:11:05;9.20;;;7.80;;
9773;SDS011;4926;42.670;23.316;2023-04-25T01:13:34;8.00;;;7.18;;
9773;SDS011;4926;42.670;23.316;2023-04-25T01:16:01;8.85;;;7.50;;
9773;SDS011;4926;42.670;23.316;2023-04-25T01:18:31;8.80;;;7.20;;
9773;SDS011;4926;42.670;23.316;2023-04-25T01:21:02;7.50;;;6.70;;
9773;SDS011;4926;42.670;23.316;2023-04-25T01:23:32;8.05;;;7.25;;
9773;SDS011;4926;42.670;23.316;2023-04-25T01:25:59;6.85;;;6.15;;
9773;SDS011;4926;42.670;23.316;2023-04-25T01:28:27;9.27;;;6.30;;
9773;SDS011;4926;42.670;23.316;2023-04-25T01:30:56;7.13;;;6.43;;
9773;SDS011;4926;42.670;23.316;2023-04-25T01:33:23;7.68;;;6.88;;
9773;SDS011;4926;42.670;23.316;2023-04-25T01:35:50;8.57;;;6.82;;
9773;SDS011;4926;42.670;23.316;2023-04-25T01:38:18;7.78;;;6.90;;
9773;SDS011;4926;42.670;23.316;2023-04-25T01:40:48;7.60;;;6.80;;
9773;SDS011;4926;42.670;23.316;2023-04-25T01:43:17;7.20;;;5.75;;
9773;SDS011;4926;42.670;23.316;2023-04-25T01:45:46;6.97;;;5.78;;
9773;SDS011;4926;42.670;23.316;2023-04-25T01:48:15;7.25;;;6.25;;
9773;SDS011;4926;42.670;23.316;2023-04-25T01:50:41;7.50;;;6.40;;
9773;SDS011;4926;42.670;23.316;2023-04-25T01:53:09;7.40;;;6.65;;
9773;SDS011;4926;42.670;23.316;2023-04-25T01:55:38;6.80;;;6.10;;
9773;SDS011;4926;42.670;23.316;2023-04-25T01:58:05;9.50;;;6.50;;
9773;SDS011;4926;42.670;23.316;2023-04-25T02:00:37;7.07;;;6.38;;
9773;SDS011;4926;42.670;23.316;2023-04-25T02:03:07;7.35;;;6.60;;
9773;SDS011;4926;42.670;23.316;2023-04-25T02:05:34;9.50;;;7.35;;
9773;SDS011;4926;42.670;23.316;2023-04-25T02:08:08;8.15;;;7.22;;
9773;SDS011;4926;42.670;23.316;2023-04-25T02:10:35;8.05;;;6.80;;
9773;SDS011;4926;42.670;23.316;2023-04-25T02:13:03;9.48;;;7.47;;
9773;SDS011;4926;42.670;23.316;2023-04-25T02:15:30;6.55;;;5.93;;
9773;SDS011;4926;42.670;23.316;2023-04-25T02:17:57;6.45;;;5.82;;
9773;SDS011;4926;42.670;23.316;2023-04-25T02:20:25;7.10;;;6.40;;
9773;SDS011;4926;42.670;23.316;2023-04-25T02:22:52;7.18;;;6.47;;
9773;SDS011;4926;42.670;23.316;2023-04-25T02:25:19;7.25;;;6.55;;
9773;SDS011;4926;42.670;23.316;2023-04-25T02:27:46;7.35;;;6.55;;
9773;SDS011;4926;42.670;23.316;2023-04-25T02:30:14;6.88;;;6.18;;
9773;SDS011;4926;42.670;23.316;2023-04-25T02:32:43;6.85;;;6.05;;
9773;SDS011;4926;42.670;23.316;2023-04-25T02:35:10;9.85;;;6.65;;
9773;SDS011;4926;42.670;23.316;2023-04-25T02:37:37;7.07;;;6.38;;
9773;SDS011;4926;42.670;23.316;2023-04-25T02:40:05;8.43;;;7.15;;
9773;SDS011;4926;42.670;23.316;2023-04-25T02:42:33;9.45;;;6.55;;
9773;SDS011;4926;42.670;23.316;2023-04-25T02:45:05;7.15;;;6.45;;
9773;SDS011;4926;42.670;23.316;2023-04-25T02:47:33;7.70;;;7.00;;
9773;SDS011;4926;42.670;23.316;2023-04-25T02:50:06;9.73;;;6.90;;
9773;SDS011;4926;42.670;23.316;2023-04-25T02:52:33;8.13;;;7.05;;
9773;SDS011;4926;42.670;23.316;2023-04-25T02:55:00;7.45;;;6.47;;
9773;SDS011;4926;42.670;23.316;2023-04-25T02:57:31;9.20;;;7.97;;
9773;SDS011;4926;42.670;23.316;2023-04-25T02:59:58;8.77;;;7.78;;
9773;SDS011;4926;42.670;23.316;2023-04-25T03:02:25;9.60;;;7.78;;
9773;SDS011;4926;42.670;23.316;2023-04-25T03:04:53;8.65;;;7.30;;
9773;SDS011;4926;42.670;23.316;2023-04-25T03:07:20;9.38;;;7.93;;
9773;SDS011;4926;42.670;23.316;2023-04-25T03:09:46;9.77;;;8.23;;
9773;SDS011;4926;42.670;23.316;2023-04-25T03:12:16;9.27;;;8.10;;
9773;SDS011;4926;42.670;23.316;2023-04-25T03:14:42;8.55;;;7.68;;
9773;SDS011;4926;42.670;23.316;2023-04-25T03:17:09;7.70;;;6.90;;
9773;SDS011;4926;42.670;23.316;2023-04-25T03:19:36;7.93;;;7.13;;
9773;SDS011;4926;42.670;23.316;2023-04-25T03:22:05;7.05;;;6.35;;
9773;SDS011;4926;42.670;23.316;2023-04-25T03:24:32;7.85;;;7.05;;
9773;SDS011;4926;42.670;23.316;2023-04-25T03:26:58;8.13;;;6.97;;
9773;SDS011;4926;42.670;23.316;2023-04-25T03:29:25;8.15;;;7.05;;
9773;SDS011;4926;42.670;23.316;2023-04-25T03:31:53;7.57;;;6.78;;
9773;SDS011;4926;42.670;23.316;2023-04-25T03:34:19;7.03;;;6.38;;
9773;SDS011;4926;42.670;23.316;2023-04-25T03:36:47;8.02;;;7.20;;
9773;SDS011;4926;42.670;23.316;2023-04-25T03:39:15;7.72;;;6.80;;
9773;SDS011;4926;42.670;23.316;2023-04-25T03:41:41;9.10;;;7.72;;
9773;SDS011;4926;42.670;23.316;2023-04-25T03:44:12;9.18;;;7.32;;
9773;SDS011;4926;42.670;23.316;2023-04-25T03:46:42;11.27;;;8.18;;
9773;SDS011;4926;42.670;23.316;2023-04-25T03:49:09;8.65;;;7.75;;
9773;SDS011;4926;42.670;23.316;2023-04-25T03:51:42;8.95;;;7.55;;
9773;SDS011;4926;42.670;23.316;2023-04-25T03:54:11;8.88;;;7.82;;
9773;SDS011;4926;42.670;23.316;2023-04-25T03:56:40;8.88;;;7.45;;
9773;SDS011;4926;42.670;23.316;2023-04-25T03:59:10;8.07;;;7.20;;
9773;SDS011;4926;42.670;23.316;2023-04-25T04:01:43;8.18;;;7.00;;
9773;SDS011;4926;42.670;23.316;2023-04-25T04:04:12;8.70;;;7.15;;
9773;SDS011;4926;42.670;23.316;2023-04-25T04:06:38;8.15;;;7.18;;
9773;SDS011;4926;42.670;23.316;2023-04-25T04:09:05;8.43;;;7.30;;
9773;SDS011;4926;42.670;23.316;2023-04-25T04:11:35;8.75;;;7.72;;
9773;SDS011;4926;42.670;23.316;2023-04-25T04:14:07;7.70;;;7.00;;
9773;SDS011;4926;42.670;23.316;2023-04-25T04:16:36;8.43;;;7.35;;
9773;SDS011;4926;42.670;23.316;2023-04-25T04:19:04;7.28;;;6.57;;
9773;SDS011;4926;42.670;23.316;2023-04-25T04:21:31;7.65;;;6.90;;
9773;SDS011;4926;42.670;23.316;2023-04-25T04:24:01;8.32;;;7.20;;
9773;SDS011;4926;42.670;23.316;2023-04-25T04:26:31;7.57;;;6.78;;
9773;SDS011;4926;42.670;23.316;2023-04-25T04:29:01;8.02;;;6.53;;
9773;SDS011;4926;42.670;23.316;2023-04-25T04:31:29;8.05;;;7.20;;
9773;SDS011;4926;42.670;23.316;2023-04-25T04:33:57;8.45;;;7.13;;
9773;SDS011;4926;42.670;23.316;2023-04-25T04:36:24;8.95;;;8.05;;
9773;SDS011;4926;42.670;23.316;2023-04-25T04:38:51;7.95;;;7.13;;
9773;SDS011;4926;42.670;23.316;2023-04-25T04:41:19;7.80;;;6.97;;
9773;SDS011;4926;42.670;23.316;2023-04-25T04:43:46;9.05;;;8.15;;
9773;SDS011;4926;42.670;23.316;2023-04-25T04:46:15;8.18;;;7.20;;
9773;SDS011;4926;42.670;23.316;2023-04-25T04:48:44;7.93;;;7.10;;
9773;SDS011;4926;42.670;23.316;2023-04-25T04:51:11;9.10;;;6.95;;
9773;SDS011;4926;42.670;23.316;2023-04-25T04:53:40;7.70;;;6.90;;
9773;SDS011;4926;42.670;23.316;2023-04-25T04:56:07;8.05;;;6.63;;
9773;SDS011;4926;42.670;23.316;2023-04-25T04:58:36;7.65;;;6.85;;
9773;SDS011;4926;42.670;23.316;2023-04-25T05:01:05;8.48;;;7.38;;
9773;SDS011;4926;42.670;23.316;2023-04-25T05:03:32;9.50;;;7.75;;
9773;SDS011;4926;42.670;23.316;2023-04-25T05:06:00;9.10;;;8.10;;
9773;SDS011;4926;42.670;23.316;2023-04-25T05:08:36;8.70;;;7.80;;
9773;SDS011;4926;42.670;23.316;2023-04-25T05:11:07;8.98;;;8.07;;
9773;SDS011;4926;42.670;23.316;2023-04-25T05:13:36;9.20;;;8.20;;
9773;SDS011;4926;42.670;23.316;2023-04-25T05:16:09;9.23;;;8.25;;
9773;SDS011;4926;42.670;23.316;2023-04-25T05:18:42;9.65;;;8.55;;
9773;SDS011;4926;42.670;23.316;2023-04-25T05:21:29;10.18;;;8.68;;
9773;SDS011;4926;42.670;23.316;2023-04-25T05:23:56;10.15;;;9.10;;
9773;SDS011;4926;42.670;23.316;2023-04-25T05:26:26;11.88;;;9.43;;
9773;SDS011;4926;42.670;23.316;2023-04-25T05:28:59;10.57;;;9.48;;
9773;SDS011;4926;42.670;23.316;2023-04-25T05:31:26;10.52;;;9.10;;
9773;SDS011;4926;42.670;23.316;2023-04-25T05:33:52;8.95;;;8.05;;
9773;SDS011;4926;42.670;23.316;2023-04-25T05:36:20;10.50;;;9.50;;
9773;SDS011;4926;42.670;23.316;2023-04-25T05:38:57;11.38;;;9.50;;
9773;SDS011;4926;42.670;23.316;2023-04-25T05:41:24;12.88;;;10.15;;
9773;SDS011;4926;42.670;23.316;2023-04-25T05:43:58;12.40;;;10.65;;
9773;SDS011;4926;42.670;23.316;2023-04-25T05:46:24;13.00;;;11.02;;
9773;SDS011;4926;42.670;23.316;2023-04-25T05:48:51;10.90;;;9.77;;
9773;SDS011;4926;42.670;23.316;2023-04-25T05:51:19;11.43;;;10.32;;
9773;SDS011;4926;42.670;23.316;2023-04-25T05:53:46;12.55;;;10.13;;
9773;SDS011;4926;42.670;23.316;2023-04-25T05:56:16;12.50;;;10.10;;
9773;SDS011;4926;42.670;23.316;2023-04-25T05:58:43;12.63;;;10.25;;
9773;SDS011;4926;42.670;23.316;2023-04-25T06:01:13;13.13;;;10.63;;
9773;SDS011;4926;42.670;23.316;2023-04-25T06:03:39;12.38;;;10.25;;
9773;SDS011;4926;42.670;23.316;2023-04-25T06:06:10;14.70;;;10.73;;
9773;SDS011;4926;42.670;23.316;2023-04-25T06:08:40;13.68;;;10.48;;
9773;SDS011;4926;42.670;23.316;2023-04-25T06:11:06;12.52;;;10.90;;
9773;SDS011;4926;42.670;23.316;2023-04-25T06:13:37;14.10;;;10.82;;
9773;SDS011;4926;42.670;23.316;2023-04-25T06:16:07;13.82;;;11.85;;
9773;SDS011;4926;42.670;23.316;2023-04-25T06:18:39;13.85;;;11.30;;
9773;SDS011;4926;42.670;23.316;2023-04-25T06:21:06;14.35;;;11.30;;
9773;SDS011;4926;42.670;23.316;2023-04-25T06:23:34;11.27;;;9.88;;
9773;SDS011;4926;42.670;23.316;2023-04-25T06:26:04;16.23;;;10.30;;
9773;SDS011;4926;42.670;23.316;2023-04-25T06:28:31;13.65;;;8.80;;
9773;SDS011;4926;42.670;23.316;2023-04-25T06:31:01;11.27;;;8.60;;
9773;SDS011;4926;42.670;23.316;2023-04-25T06:33:28;9.95;;;8.90;;
9773;SDS011;4926;42.670;23.316;2023-04-25T06:35:57;10.60;;;8.65;;
9773;SDS011;4926;42.670;23.316;2023-04-25T06:38:24;11.77;;;8.30;;
9773;SDS011;4926;42.670;23.316;2023-04-25T06:40:52;11.02;;;7.80;;
9773;SDS011;4926;42.670;23.316;2023-04-25T06:43:22;9.88;;;7.20;;
9773;SDS011;4926;42.670;23.316;2023-04-25T06:45:58;10.25;;;7.25;;
9773;SDS011;4926;42.670;23.316;2023-04-25T06:48:28;8.27;;;7.35;;
9773;SDS011;4926;42.670;23.316;2023-04-25T06:50:56;7.75;;;6.60;;
9773;SDS011;4926;42.670;23.316;2023-04-25T06:53:23;8.88;;;6.50;;
9773;SDS011;4926;42.670;23.316;2023-04-25T06:55:50;7.65;;;6.65;;
9773;SDS011;4926;42.670;23.316;2023-04-25T06:58:16;9.20;;;6.90;;
9773;SDS011;4926;42.670;23.316;2023-04-25T07:00:46;7.47;;;6.65;;
9773;SDS011;4926;42.670;23.316;2023-04-25T07:03:15;11.48;;;6.85;;
9773;SDS011;4926;42.670;23.316;2023-04-25T07:05:43;7.97;;;6.72;;
9773;SDS011;4926;42.670;23.316;2023-04-25T07:08:13;11.35;;;6.53;;
9773;SDS011;4926;42.670;23.316;2023-04-25T07:10:40;8.43;;;6.90;;
9773;SDS011;4926;42.670;23.316;2023-04-25T07:13:06;8.07;;;6.55;;
9773;SDS011;4926;42.670;23.316;2023-04-25T07:15:33;8.18;;;6.28;;
9773;SDS011;4926;42.670;23.316;2023-04-25T07:18:00;9.48;;;6.68;;
9773;SDS011;4926;42.670;23.316;2023-04-25T07:20:30;10.90;;;7.32;;
9773;SDS011;4926;42.670;23.316;2023-04-25T07:22:59;9.07;;;6.80;;
9773;SDS011;4926;42.670;23.316;2023-04-25T07:25:25;10.70;;;7.38;;
9773;SDS011;4926;42.670;23.316;2023-04-25T07:27:52;12.50;;;7.90;;
9773;SDS011;4926;42.670;23.316;2023-04-25T07:30:21;8.02;;;7.22;;
9773;SDS011;4926;42.670;23.316;2023-04-25T07:32:48;10.98;;;7.60;;
9773;SDS011;4926;42.670;23.316;2023-04-25T07:35:17;10.50;;;7.88;;
9773;SDS011;4926;42.670;23.316;2023-04-25T07:37:44;10.48;;;8.40;;
9773;SDS011;4926;42.670;23.316;2023-04-25T07:40:15;13.30;;;10.52;;
9773;SDS011;4926;42.670;23.316;2023-04-25T07:42:41;15.85;;;8.07;;
9773;SDS011;4926;42.670;23.316;2023-04-25T07:45:08;10.98;;;7.82;;
9773;SDS011;4926;42.670;23.316;2023-04-25T07:47:39;10.18;;;7.85;;
9773;SDS011;4926;42.670;23.316;2023-04-25T07:50:06;12.20;;;7.95;;
9773;SDS011;4926;42.670;23.316;2023-04-25T07:52:33;13.07;;;7.80;;
9773;SDS011;4926;42.670;23.316;2023-04-25T07:55:03;10.38;;;7.63;;
9773;SDS011;4926;42.670;23.316;2023-04-25T07:57:36;9.68;;;6.90;;
9773;SDS011;4926;42.670;23.316;2023-04-25T08:00:03;9.65;;;7.25;;
9773;SDS011;4926;42.670;23.316;2023-04-25T08:02:34;11.77;;;7.40;;
9773;SDS011;4926;42.670;23.316;2023-04-25T08:05:01;9.93;;;7.35;;
9773;SDS011;4926;42.670;23.316;2023-04-25T08:07:34;9.70;;;7.53;;
9773;SDS011;4926;42.670;23.316;2023-04-25T08:10:04;10.27;;;6.45;;
9773;SDS011;4926;42.670;23.316;2023-04-25T08:12:34;9.52;;;6.50;;
9773;SDS011;4926;42.670;23.316;2023-04-25T08:15:03;9.90;;;6.88;;
9773;SDS011;4926;42.670;23.316;2023-04-25T08:17:31;10.82;;;6.68;;
9773;SDS011;4926;42.670;23.316;2023-04-25T08:20:01;11.10;;;6.57;;
9773;SDS011;4926;42.670;23.316;2023-04-25T08:22:35;6.90;;;4.93;;
9773;SDS011;4926;42.670;23.316;2023-04-25T08:25:02;6.60;;;5.03;;
9773;SDS011;4926;42.670;23.316;2023-04-25T08:27:28;6.38;;;4.95;;
9773;SDS011;4926;42.670;23.316;2023-04-25T08:29:59;8.52;;;4.70;;
9773;SDS011;4926;42.670;23.316;2023-04-25T08:32:25;4.88;;;4.38;;
9773;SDS011;4926;42.670;23.316;2023-04-25T08:34:52;6.97;;;4.57;;
9773;SDS011;4926;42.670;23.316;2023-04-25T08:37:23;8.55;;;4.43;;
9773;SDS011;4926;42.670;23.316;2023-04-25T08:39:49;6.30;;;4.70;;
9773;SDS011;4926;42.670;23.316;2023-04-25T08:42:21;8.75;;;5.00;;
9773;SDS011;4926;42.670;23.316;2023-04-25T08:44:48;5.53;;;4.72;;
9773;SDS011;4926;42.670;23.316;2023-04-25T08:47:16;6.93;;;4.72;;
9773;SDS011;4926;42.670;23.316;2023-04-25T08:49:47;7.07;;;5.05;;
9773;SDS011;4926;42.670;23.316;2023-04-25T08:52:14;6.72;;;5.13;;
9773;SDS011;4926;42.670;23.316;2023-04-25T08:54:47;5.03;;;4.35;;
9773;SDS011;4926;42.670;23.316;2023-04-25T08:57:15;7.85;;;6.38;;
9773;SDS011;4926;42.670;23.316;2023-04-25T08:59:43;6.57;;;5.82;;
9773;SDS011;4926;42.670;23.316;2023-04-25T09:02:13;9.63;;;5.50;;
9773;SDS011;4926;42.670;23.316;2023-04-25T09:04:46;6.63;;;5.93;;
9773;SDS011;4926;42.670;23.316;2023-04-25T09:07:12;7.03;;;5.57;;
9773;SDS011;4926;42.670;23.316;2023-04-25T09:09:43;8.80;;;5.30;;
9773;SDS011;4926;42.670;23.316;2023-04-25T09:12:14;7.60;;;5.43;;
9773;SDS011;4926;42.670;23.316;2023-04-25T09:14:42;7.88;;;4.43;;
9773;SDS011;4926;42.670;23.316;2023-04-25T09:17:08;7.88;;;4.90;;
9773;SDS011;4926;42.670;23.316;2023-04-25T09:19:36;8.40;;;5.15;;
9773;SDS011;4926;42.670;23.316;2023-04-25T09:22:06;6.32;;;4.80;;
9773;SDS011;4926;42.670;23.316;2023-04-25T09:24:34;5.53;;;4.10;;
9773;SDS011;4926;42.670;23.316;2023-04-25T09:27:05;8.57;;;4.75;;
9773;SDS011;4926;42.670;23.316;2023-04-25T09:29:33;5.68;;;5.18;;
9773;SDS011;4926;42.670;23.316;2023-04-25T09:34:50;4.15;;;3.63;;
9773;SDS011;4926;42.670;23.316;2023-04-25T09:37:19;5.45;;;3.90;;
9773;SDS011;4926;42.670;23.316;2023-04-25T09:39:47;8.32;;;4.60;;
9773;SDS011;4926;42.670;23.316;2023-04-25T09:42:15;4.45;;;4.03;;
9773;SDS011;4926;42.670;23.316;2023-04-25T09:44:49;6.57;;;4.35;;
9773;SDS011;4926;42.670;23.316;2023-04-25T09:47:18;9.23;;;4.65;;
9773;SDS011;4926;42.670;23.316;2023-04-25T09:49:46;5.30;;;4.15;;
9773;SDS011;4926;42.670;23.316;2023-04-25T09:52:16;5.93;;;4.40;;
9773;SDS011;4926;42.670;23.316;2023-04-25T09:54:47;5.68;;;4.15;;
9773;SDS011;4926;42.670;23.316;2023-04-25T09:57:16;3.83;;;2.92;;
9773;SDS011;4926;42.670;23.316;2023-04-25T09:59:44;4.55;;;2.30;;
9773;SDS011;4926;42.670;23.316;2023-04-25T10:02:12;4.78;;;3.53;;
9773;SDS011;4926;42.670;23.316;2023-04-25T10:04:40;4.60;;;4.00;;
9773;SDS011;4926;42.670;23.316;2023-04-25T10:07:08;5.75;;;4.55;;
9773;SDS011;4926;42.670;23.316;2023-04-25T10:09:36;6.45;;;4.70;;
9773;SDS011;4926;42.670;23.316;2023-04-25T10:12:06;6.32;;;4.28;;
9773;SDS011;4926;42.670;23.316;2023-04-25T10:14:33;6.35;;;5.07;;
9773;SDS011;4926;42.670;23.316;2023-04-25T10:17:00;3.72;;;2.95;;
9773;SDS011;4926;42.670;23.316;2023-04-25T10:19:27;4.32;;;2.40;;
9773;SDS011;4926;42.670;23.316;2023-04-25T10:21:55;2.03;;;1.27;;
9773;SDS011;4926;42.670;23.316;2023-04-25T10:24:28;3.50;;;1.85;;
9773;SDS011;4926;42.670;23.316;2023-04-25T10:26:55;3.83;;;2.58;;
9773;SDS011;4926;42.670;23.316;2023-04-25T10:29:28;4.50;;;2.10;;
9773;SDS011;4926;42.670;23.316;2023-04-25T10:31:55;2.38;;;1.80;;
9773;SDS011;4926;42.670;23.316;2023-04-25T10:34:37;2.63;;;2.00;;
9773;SDS011;4926;42.670;23.316;2023-04-25T10:37:05;2.97;;;1.60;;
9773;SDS011;4926;42.670;23.316;2023-04-25T10:39:34;2.28;;;1.77;;
9773;SDS011;4926;42.670;23.316;2023-04-25T10:42:01;1.88;;;1.35;;
9773;SDS011;4926;42.670;23.316;2023-04-25T10:44:30;1.77;;;1.30;;
9773;SDS011;4926;42.670;23.316;2023-04-25T10:47:02;3.05;;;1.52;;
9773;SDS011;4926;42.670;23.316;2023-04-25T10:49:31;2.70;;;1.65;;
9773;SDS011;4926;42.670;23.316;2023-04-25T10:52:10;4.10;;;1.75;;
9773;SDS011;4926;42.670;23.316;2023-04-25T10:54:40;3.17;;;1.50;;
9773;SDS011;4926;42.670;23.316;2023-04-25T10:57:29;1.67;;;1.58;;
9773;SDS011;4926;42.670;23.316;2023-04-25T11:00:04;4.13;;;1.70;;
9773;SDS011;4926;42.670;23.316;2023-04-25T11:02:43;2.92;;;1.40;;
9773;SDS011;4926;42.670;23.316;2023-04-25T11:05:16;1.85;;;1.48;;
9773;SDS011;4926;42.670;23.316;2023-04-25T11:07:52;2.78;;;1.10;;
9773;SDS011;4926;42.670;23.316;2023-04-25T11:10:24;1.27;;;1.10;;
9773;SDS011;4926;42.670;23.316;2023-04-25T11:12:51;1.88;;;1.20;;
9773;SDS011;4926;42.670;23.316;2023-04-25T11:15:19;1.75;;;1.25;;
9773;SDS011;4926;42.670;23.316;2023-04-25T11:17:46;1.83;;;1.10;;
9773;SDS011;4926;42.670;23.316;2023-04-25T11:20:13;1.05;;;0.95;;
9773;SDS011;4926;42.670;23.316;2023-04-25T11:22:40;1.63;;;0.88;;
9773;SDS011;4926;42.670;23.316;2023-04-25T11:25:15;2.78;;;1.65;;
9773;SDS011;4926;42.670;23.316;2023-04-25T11:27:51;6.55;;;1.55;;
9773;SDS011;4926;42.670;23.316;2023-04-25T11:30:20;1.17;;;1.08;;
9773;SDS011;4926;42.670;23.316;2023-04-25T11:32:48;3.13;;;1.40;;
9773;SDS011;4926;42.670;23.316;2023-04-25T11:35:16;1.95;;;1.45;;
9773;SDS011;4926;42.670;23.316;2023-04-25T11:37:47;1.48;;;1.30;;
9773;SDS011;4926;42.670;23.316;2023-04-25T11:40:15;3.55;;;1.67;;
9773;SDS011;4926;42.670;23.316;2023-04-25T11:42:50;5.03;;;1.70;;
9773;SDS011;4926;42.670;23.316;2023-04-25T11:45:17;2.88;;;1.48;;
9773;SDS011;4926;42.670;23.316;2023-04-25T11:47:53;1.60;;;1.30;;
9773;SDS011;4926;42.670;23.316;2023-04-25T11:50:24;3.72;;;1.30;;
9773;SDS011;4926;42.670;23.316;2023-04-25T11:52:55;1.70;;;1.20;;
9773;SDS011;4926;42.670;23.316;2023-04-25T11:55:23;2.15;;;1.30;;
9773;SDS011;4926;42.670;23.316;2023-04-25T11:57:54;1.65;;;1.23;;
9773;SDS011;4926;42.670;23.316;2023-04-25T12:00:21;2.00;;;1.20;;
9773;SDS011;4926;42.670;23.316;2023-04-25T12:02:51;1.70;;;1.20;;
9773;SDS011;4926;42.670;23.316;2023-04-25T12:05:20;1.90;;;1.20;;
9773;SDS011;4926;42.670;23.316;2023-04-25T12:07:51;2.92;;;1.52;;
9773;SDS011;4926;42.670;23.316;2023-04-25T12:10:18;1.70;;;1.15;;
9773;SDS011;4926;42.670;23.316;2023-04-25T12:12:45;2.38;;;1.60;;
9773;SDS011;4926;42.670;23.316;2023-04-25T12:15:16;2.08;;;1.38;;
9773;SDS011;4926;42.670;23.316;2023-04-25T12:17:45;2.22;;;1.30;;
9773;SDS011;4926;42.670;23.316;2023-04-25T12:20:17;1.67;;;1.02;;
9773;SDS011;4926;42.670;23.316;2023-04-25T12:22:49;1.92;;;1.50;;
9773;SDS011;4926;42.670;23.316;2023-04-25T12:28:10;3.17;;;1.73;;
9773;SDS011;4926;42.670;23.316;2023-04-25T12:30:56;4.18;;;1.80;;
9773;SDS011;4926;42.670;23.316;2023-04-25T12:33:29;2.65;;;1.45;;
9773;SDS011;4926;42.670;23.316;2023-04-25T12:36:01;2.63;;;1.60;;
9773;SDS011;4926;42.670;23.316;2023-04-25T12:38:36;2.78;;;1.65;;
9773;SDS011;4926;42.670;23.316;2023-04-25T12:41:03;4.10;;;1.38;;
9773;SDS011;4926;42.670;23.316;2023-04-25T12:43:30;3.85;;;1.40;;
9773;SDS011;4926;42.670;23.316;2023-04-25T12:45:57;4.50;;;1.75;;
9773;SDS011;4926;42.670;23.316;2023-04-25T12:48:25;3.42;;;1.55;;
9773;SDS011;4926;42.670;23.316;2023-04-25T12:50:55;3.75;;;1.50;;
9773;SDS011;4926;42.670;23.316;2023-04-25T12:53:26;5.05;;;1.60;;
9773;SDS011;4926;42.670;23.316;2023-04-25T12:55:52;2.20;;;1.75;;
9773;SDS011;4926;42.670;23.316;2023-04-25T12:58:19;3.72;;;1.60;;
9773;SDS011;4926;42.670;23.316;2023-04-25T13:00:49;4.82;;;1.80;;
9773;SDS011;4926;42.670;23.316;2023-04-25T13:03:17;3.38;;;2.28;;
9773;SDS011;4926;42.670;23.316;2023-04-25T13:05:44;3.25;;;2.50;;
9773;SDS011;4926;42.670;23.316;2023-04-25T13:08:14;2.53;;;2.10;;
9773;SDS011;4926;42.670;23.316;2023-04-25T13:10:45;5.63;;;3.10;;
9773;SDS011;4926;42.670;23.316;2023-04-25T13:13:12;3.78;;;3.10;;
9773;SDS011;4926;42.670;23.316;2023-04-25T13:15:41;5.75;;;2.90;;
9773;SDS011;4926;42.670;23.316;2023-04-25T13:18:08;3.25;;;2.40;;
9773;SDS011;4926;42.670;23.316;2023-04-25T13:20:35;7.72;;;2.45;;
9773;SDS011;4926;42.670;23.316;2023-04-25T13:23:04;4.57;;;2.30;;
9773;SDS011;4926;42.670;23.316;2023-04-25T13:25:31;5.13;;;2.15;;
9773;SDS011;4926;42.670;23.316;2023-04-25T13:27:59;4.63;;;2.35;;
9773;SDS011;4926;42.670;23.316;2023-04-25T13:30:26;6.43;;;2.47;;
9773;SDS011;4926;42.670;23.316;2023-04-25T13:32:55;3.53;;;2.17;;
9773;SDS011;4926;42.670;23.316;2023-04-25T13:35:28;4.05;;;3.30;;
9773;SDS011;4926;42.670;23.316;2023-04-25T13:37:55;9.48;;;6.85;;
9773;SDS011;4926;42.670;23.316;2023-04-25T13:40:30;4.53;;;3.22;;
9773;SDS011;4926;42.670;23.316;2023-04-25T13:42:59;4.00;;;2.60;;
9773;SDS011;4926;42.670;23.316;2023-04-25T13:45:29;4.60;;;2.50;;
9773;SDS011;4926;42.670;23.316;2023-04-25T13:47:55;4.95;;;2.75;;
9773;SDS011;4926;42.670;23.316;2023-04-25T13:50:24;3.88;;;2.40;;
9773;SDS011;4926;42.670;23.316;2023-04-25T13:52:51;2.40;;;2.20;;
9773;SDS011;4926;42.670;23.316;2023-04-25T13:55:18;2.25;;;1.80;;
9773;SDS011;4926;42.670;23.316;2023-04-25T13:57:44;3.20;;;1.67;;
9773;SDS011;4926;42.670;23.316;2023-04-25T14:00:13;8.60;;;1.92;;
9773;SDS011;4926;42.670;23.316;2023-04-25T14:02:41;3.30;;;1.83;;
9773;SDS011;4926;42.670;23.316;2023-04-25T14:05:11;3.00;;;2.00;;
9773;SDS011;4926;42.670;23.316;2023-04-25T14:07:38;1.70;;;1.60;;
9773;SDS011;4926;42.670;23.316;2023-04-25T14:10:05;2.08;;;1.38;;
9773;SDS011;4926;42.670;23.316;2023-04-25T14:12:32;1.52;;;1.40;;
9773;SDS011;4926;42.670;23.316;2023-04-25T14:14:59;3.00;;;1.35;;
9773;SDS011;4926;42.670;23.316;2023-04-25T14:17:27;1.33;;;1.20;;
9773;SDS011;4926;42.670;23.316;2023-04-25T14:19:58;2.17;;;1.73;;
9773;SDS011;4926;42.670;23.316;2023-04-25T14:22:26;1.63;;;1.33;;
9773;SDS011;4926;42.670;23.316;2023-04-25T14:24:57;1.92;;;1.63;;
9773;SDS011;4926;42.670;23.316;2023-04-25T14:27:24;2.55;;;1.52;;
9773;SDS011;4926;42.670;23.316;2023-04-25T14:29:51;2.72;;;1.60;;
9773;SDS011;4926;42.670;23.316;2023-04-25T14:32:18;3.13;;;1.63;;
9773;SDS011;4926;42.670;23.316;2023-04-25T14:34:46;2.30;;;2.00;;
9773;SDS011;4926;42.670;23.316;2023-04-25T14:37:13;2.50;;;1.60;;
9773;SDS011;4926;42.670;23.316;2023-04-25T14:39:40;1.50;;;1.40;;
9773;SDS011;4926;42.670;23.316;2023-04-25T14:42:06;2.85;;;2.00;;
9773;SDS011;4926;42.670;23.316;2023-04-25T14:44:36;1.50;;;1.40;;
9773;SDS011;4926;42.670;23.316;2023-04-25T14:47:02;2.03;;;1.48;;
9773;SDS011;4926;42.670;23.316;2023-04-25T14:49:29;3.42;;;2.45;;
9773;SDS011;4926;42.670;23.316;2023-04-25T14:52:00;2.53;;;2.28;;
9773;SDS011;4926;42.670;23.316;2023-04-25T14:54:37;2.58;;;1.77;;
9773;SDS011;4926;42.670;23.316;2023-04-25T14:57:04;3.45;;;2.40;;
9773;SDS011;4926;42.670;23.316;2023-04-25T14:59:30;3.00;;;2.10;;
9773;SDS011;4926;42.670;23.316;2023-04-25T15:02:03;2.90;;;2.03;;
9773;SDS011;4926;42.670;23.316;2023-04-25T15:04:33;1.73;;;1.63;;
9773;SDS011;4926;42.670;23.316;2023-04-25T15:07:01;2.15;;;1.83;;
9773;SDS011;4926;42.670;23.316;2023-04-25T15:09:27;4.72;;;1.65;;
9773;SDS011;4926;42.670;23.316;2023-04-25T15:11:54;2.58;;;2.30;;
9773;SDS011;4926;42.670;23.316;2023-04-25T15:14:21;3.17;;;1.83;;